Time;durP1;ratioP1;P1;durP2;ratioP2;P2;SDS_P1;SDS_P2;PMS_P1;PMS_P2;Temp;Humidity;BMP_temperature;BMP_pressure;BME280_temperature;BME280_humidity;BME280_pressure;Samples;Min_cycle;Max_cycle;Signal;HPM_P1;HPM_P2
2023/12/27 00:00:41;;;;;;;4.43;1.58;;;;;;;-146.82;100.00;71671.09;5036506;28;20026;-84
2023/12/27 00:03:06;;;;;;;3.42;1.83;;;;;;;-146.82;100.00;71671.09;5038882;28;20104;-82
2023/12/27 00:05:32;;;;;;;10.98;2.88;;;;;;;-146.82;100.00;71671.09;5038710;28;20025;-80
2023/12/27 00:07:57;;;;;;;12.93;4.53;;;;;;;-146.82;100.00;71671.09;5037843;28;20501;-80
2023/12/27 00:10:23;;;;;;;10.32;3.45;;;;;;;-146.82;100.00;71671.09;5038669;28;20112;-82
2023/12/27 00:12:48;;;;;;;4.45;1.40;;;;;;;-146.82;100.00;71671.09;5035976;28;20021;-83
2023/12/27 00:15:13;;;;;;;5.20;1.90;;;;;;;-146.82;100.00;71671.09;5036815;28;20059;-82
2023/12/27 00:17:39;;;;;;;7.43;1.50;;;;;;;-146.82;100.00;71671.09;5037071;28;20021;-81
2023/12/27 00:20:05;;;;;;;3.35;1.38;;;;;;;-146.82;100.00;71671.09;5035569;28;20060;-82
2023/12/27 00:22:30;;;;;;;1.85;1.00;;;;;;;-146.82;100.00;71671.09;5035701;28;20029;-81
2023/12/27 00:24:56;;;;;;;3.22;0.93;;;;;;;-146.82;100.00;71671.09;5036445;28;20107;-81
2023/12/27 00:27:21;;;;;;;2.22;0.80;;;;;;;-146.82;100.00;71671.09;5018626;28;20071;-83
2023/12/27 00:29:47;;;;;;;3.15;0.85;;;;;;;-146.82;100.00;71671.09;5036115;28;20033;-81
2023/12/27 00:32:12;;;;;;;1.40;0.40;;;;;;;-146.82;100.00;71671.09;5035271;28;20467;-81
2023/12/27 00:34:38;;;;;;;1.83;0.60;;;;;;;-146.82;100.00;71671.09;5036273;28;20501;-82
2023/12/27 00:37:04;;;;;;;0.90;0.68;;;;;;;-146.82;100.00;71671.09;5035030;28;20109;-82
2023/12/27 00:39:30;;;;;;;1.17;0.60;;;;;;;-146.82;100.00;71671.09;5018538;28;20112;-82
2023/12/27 00:41:56;;;;;;;1.30;0.65;;;;;;;-146.82;100.00;71671.09;5036319;28;20117;-80
2023/12/27 00:44:22;;;;;;;0.73;0.60;;;;;;;-146.82;100.00;71671.09;5034505;28;20026;-80
2023/12/27 00:46:47;;;;;;;4.35;0.80;;;;;;;-146.82;100.00;71671.09;5035928;28;20051;-82
2023/12/27 00:49:13;;;;;;;0.60;0.50;;;;;;;-146.82;100.00;71671.09;5035770;28;20454;-82
2023/12/27 00:51:38;;;;;;;1.35;0.68;;;;;;;-146.82;100.00;71671.09;5035688;28;20021;-80
2023/12/27 00:54:04;;;;;;;3.85;0.68;;;;;;;-146.82;100.00;71671.09;5035653;28;20108;-82
2023/12/27 00:56:29;;;;;;;1.30;0.50;;;;;;;-146.82;100.00;71671.09;5035649;28;20148;-83
2023/12/27 00:58:54;;;;;;;0.40;0.40;;;;;;;-146.82;100.00;71671.09;5035501;28;20049;-82
2023/12/27 01:01:20;;;;;;;4.15;0.75;;;;;;;-146.82;100.00;71671.09;5034499;28;20025;-81
2023/12/27 01:03:45;;;;;;;0.88;0.40;;;;;;;-146.82;100.00;71671.09;5035659;28;20026;-80
2023/12/27 01:06:11;;;;;;;1.90;0.63;;;;;;;-146.82;100.00;71671.09;5034254;28;20482;-80
2023/12/27 01:08:37;;;;;;;3.38;0.60;;;;;;;-146.82;100.00;71671.09;5035468;28;20029;-82
2023/12/27 01:11:03;;;;;;;0.35;0.35;;;;;;;-146.82;100.00;71671.09;5035396;28;20017;-82
2023/12/27 01:13:28;;;;;;;0.95;0.50;;;;;;;-146.82;100.00;71671.09;5034280;28;20041;-81
2023/12/27 01:15:54;;;;;;;1.17;0.60;;;;;;;-146.82;100.00;71671.09;5035345;28;20550;-82
2023/12/27 01:18:20;;;;;;;0.50;0.40;;;;;;;-146.82;100.00;71671.09;5035414;28;20406;-80
2023/12/27 01:20:46;;;;;;;0.73;0.55;;;;;;;-146.82;100.00;71671.09;5035161;28;20029;-82
2023/12/27 01:23:12;;;;;;;1.75;0.73;;;;;;;-146.82;100.00;71671.09;5033680;28;20031;-81
2023/12/27 01:25:37;;;;;;;2.72;0.52;;;;;;;-146.82;100.00;71671.09;5034898;28;20025;-82
2023/12/27 01:28:03;;;;;;;1.35;0.50;;;;;;;-146.82;100.00;71671.09;5034475;28;20026;-80
2023/12/27 01:30:29;;;;;;;0.50;0.40;;;;;;;-146.82;100.00;71671.09;5035191;28;20025;-80
2023/12/27 01:32:55;;;;;;;1.60;0.57;;;;;;;-146.82;100.00;71671.09;5033725;28;20030;-81
2023/12/27 01:35:21;;;;;;;1.70;0.63;;;;;;;-146.82;100.00;71671.09;5034977;28;20175;-81
2023/12/27 01:37:46;;;;;;;1.92;0.70;;;;;;;-146.82;100.00;71671.09;5034770;28;20026;-81
2023/12/27 01:40:12;;;;;;;3.25;0.57;;;;;;;-146.82;100.00;71671.09;5034744;28;20014;-82
2023/12/27 01:42:38;;;;;;;0.50;0.47;;;;;;;-146.82;100.00;71671.09;5034718;28;20028;-80
2023/12/27 01:45:05;;;;;;;4.25;0.90;;;;;;;-146.82;100.00;71671.09;5017130;28;20025;-79
2023/12/27 01:47:33;;;;;;;4.03;0.80;;;;;;;-146.82;100.00;71671.09;5034844;28;20021;-82
2023/12/27 01:49:58;;;;;;;3.33;0.60;;;;;;;-146.82;100.00;71671.09;5033469;28;20472;-81
2023/12/27 01:52:24;;;;;;;2.33;1.10;;;;;;;-146.82;100.00;71671.09;5034686;28;20033;-80
2023/12/27 01:54:49;;;;;;;3.17;0.85;;;;;;;-146.82;100.00;71671.09;5033174;28;20030;-81
2023/12/27 01:57:15;;;;;;;3.85;0.80;;;;;;;-146.82;100.00;71671.09;5034412;28;20075;-80
2023/12/27 01:59:40;;;;;;;3.25;0.88;;;;;;;-146.82;100.00;71671.09;5034651;28;20486;-81
2023/12/27 02:02:06;;;;;;;1.23;0.60;;;;;;;-146.82;100.00;71671.09;5034323;28;20032;-81
2023/12/27 02:04:31;;;;;;;1.92;0.68;;;;;;;-146.82;100.00;71671.09;5034423;28;20466;-81
2023/12/27 02:06:57;;;;;;;6.35;0.80;;;;;;;-146.82;100.00;71671.09;5016467;28;20028;-81
2023/12/27 02:09:22;;;;;;;2.58;0.85;;;;;;;-146.82;100.00;71671.09;5034103;28;20033;-80
2023/12/27 02:11:48;;;;;;;2.47;1.15;;;;;;;-146.82;100.00;71671.09;5032888;28;20040;-81
2023/12/27 02:14:13;;;;;;;1.38;0.98;;;;;;;-146.82;100.00;71671.09;5033059;28;20025;-81
2023/12/27 02:16:38;;;;;;;1.50;0.50;;;;;;;-146.82;100.00;71671.09;5032873;28;20025;-79
2023/12/27 02:19:04;;;;;;;4.05;0.98;;;;;;;-146.82;100.00;71671.09;5034033;28;20063;-80
2023/12/27 02:21:30;;;;;;;3.58;0.98;;;;;;;-146.82;100.00;71671.09;5032881;28;20113;-81
2023/12/27 02:23:58;;;;;;;5.05;1.63;;;;;;;-146.82;100.00;71671.09;5033754;28;20042;-81
2023/12/27 02:26:23;;;;;;;6.40;0.88;;;;;;;-146.82;100.00;71671.09;5016321;28;20037;-81
2023/12/27 02:28:49;;;;;;;5.72;1.10;;;;;;;-146.82;100.00;71671.09;5034308;28;20028;-81
2023/12/27 02:31:14;;;;;;;7.35;1.17;;;;;;;-146.82;100.00;71671.09;5032754;28;20052;-80
2023/12/27 02:33:43;;;;;;;3.65;0.90;;;;;;;-146.82;100.00;71671.09;5032730;28;20028;-81
2023/12/27 02:36:10;;;;;;;5.72;0.98;;;;;;;-146.82;100.00;71671.09;5000321;28;20076;-82
2023/12/27 02:38:35;;;;;;;8.30;1.30;;;;;;;-146.82;100.00;71671.09;5033550;28;20441;-82
2023/12/27 02:41:02;;;;;;;2.08;0.82;;;;;;;-146.82;100.00;71671.09;5015910;28;20044;-80
2023/12/27 02:43:27;;;;;;;4.78;1.02;;;;;;;-146.82;100.00;71671.09;5034136;28;20490;-80
2023/12/27 02:45:53;;;;;;;4.22;0.90;;;;;;;-146.82;100.00;71671.09;5033735;28;20022;-82
2023/12/27 02:48:18;;;;;;;4.00;0.88;;;;;;;-146.82;100.00;71671.09;5033723;28;20471;-81
2023/12/27 02:50:44;;;;;;;2.00;0.80;;;;;;;-146.82;100.00;71671.09;5032328;28;20028;-81
2023/12/27 02:53:11;;;;;;;4.53;1.40;;;;;;;-146.82;100.00;71671.09;5033876;28;20025;-81
2023/12/27 02:55:36;;;;;;;2.40;1.30;;;;;;;-146.82;100.00;71671.09;5032675;28;20025;-81
2023/12/27 02:58:03;;;;;;;3.58;1.02;;;;;;;-146.82;100.00;71671.09;5015901;28;20368;-81
2023/12/27 03:00:30;;;;;;;3.83;0.70;;;;;;;-146.82;100.00;71671.09;5033841;28;20033;-82
2023/12/27 03:02:56;;;;;;;1.35;0.75;;;;;;;-146.82;100.00;71671.09;5033637;28;20489;-80
2023/12/27 03:05:21;;;;;;;3.03;0.98;;;;;;;-146.82;100.00;71671.09;5033642;28;20026;-81
2023/12/27 03:07:46;;;;;;;4.47;0.80;;;;;;;-146.82;100.00;71671.09;5033757;28;20025;-82
2023/12/27 03:10:12;;;;;;;4.68;1.08;;;;;;;-146.82;100.00;71671.09;5034120;28;20025;-82
2023/12/27 03:12:37;;;;;;;6.53;1.10;;;;;;;-146.82;100.00;71671.09;5033441;28;20075;-82
2023/12/27 03:15:03;;;;;;;7.43;1.27;;;;;;;-146.82;100.00;71671.09;5033794;28;20056;-81
2023/12/27 03:17:29;;;;;;;5.60;1.23;;;;;;;-146.82;100.00;71671.09;5032283;28;20037;-81
2023/12/27 03:19:54;;;;;;;3.70;1.55;;;;;;;-146.82;100.00;71671.09;5033635;28;20017;-81
2023/12/27 03:22:19;;;;;;;2.80;0.80;;;;;;;-146.82;100.00;71671.09;5033255;28;20021;-80
2023/12/27 03:24:45;;;;;;;5.93;0.90;;;;;;;-146.82;100.00;71671.09;5033287;28;20046;-82
2023/12/27 03:27:10;;;;;;;3.13;0.68;;;;;;;-146.82;100.00;71671.09;5032054;28;20029;-81
2023/12/27 03:29:36;;;;;;;4.68;1.55;;;;;;;-146.82;100.00;71671.09;5033594;28;20022;-81
2023/12/27 03:32:01;;;;;;;4.60;0.98;;;;;;;-146.82;100.00;71671.09;5031985;28;20050;-81
2023/12/27 03:34:26;;;;;;;6.95;1.20;;;;;;;-146.82;100.00;71671.09;5031926;28;20116;-82
2023/12/27 03:36:52;;;;;;;2.92;1.40;;;;;;;-146.82;100.00;71671.09;5035161;28;20379;-80
2023/12/27 03:39:18;;;;;;;4.22;1.63;;;;;;;-146.82;100.00;71671.09;5036979;28;20378;-81
2023/12/27 03:41:43;;;;;;;8.60;1.20;;;;;;;-146.82;100.00;71671.09;5041657;28;20045;-82
2023/12/27 03:44:09;;;;;;;6.97;1.42;;;;;;;-146.82;100.00;71671.09;5046897;28;20409;-82
2023/12/27 03:46:34;;;;;;;8.48;1.30;;;;;;;-146.82;100.00;71671.09;5048999;28;20031;-81
2023/12/27 03:49:00;;;;;;;7.63;1.80;;;;;;;-146.82;100.00;71671.09;5047794;28;20517;-81
2023/12/27 03:51:25;;;;;;;8.93;1.40;;;;;;;-146.82;100.00;71671.09;5046764;28;20029;-79
2023/12/27 03:53:51;;;;;;;7.40;1.45;;;;;;;-146.82;100.00;71671.09;5047560;28;20064;-83
2023/12/27 03:56:16;;;;;;;9.88;1.90;;;;;;;-146.82;100.00;71671.09;5029730;28;20028;-81
2023/12/27 03:58:43;;;;;;;7.50;1.23;;;;;;;-146.82;100.00;71671.09;5040106;28;20024;-79
2023/12/27 04:01:08;;;;;;;7.75;1.13;;;;;;;-146.82;100.00;71671.09;5044588;28;20021;-79
2023/12/27 04:03:34;;;;;;;3.92;1.50;;;;;;;-146.82;100.00;71671.09;5023819;28;20029;-80
2023/12/27 04:05:59;;;;;;;4.07;1.23;;;;;;;-146.82;100.00;71671.09;5051677;28;20029;-81
2023/12/27 04:08:25;;;;;;;8.63;2.35;;;;;;;-146.82;100.00;71671.09;5044523;28;20030;-80
2023/12/27 04:10:50;;;;;;;5.07;1.52;;;;;;;-146.82;100.00;71671.09;5018907;28;20462;-81
2023/12/27 04:13:16;;;;;;;3.28;1.25;;;;;;;-146.82;100.00;71671.09;5042969;28;20561;-80
2023/12/27 04:15:41;;;;;;;14.68;1.63;;;;;;;-146.82;100.00;71671.09;5037057;28;20482;-80
2023/12/27 04:18:07;;;;;;;4.32;1.00;;;;;;;-146.82;100.00;71671.09;5034922;28;20024;-81
2023/12/27 04:20:32;;;;;;;4.65;1.70;;;;;;;-146.82;100.00;71671.09;5036240;28;20068;-80
2023/12/27 04:22:58;;;;;;;8.02;2.25;;;;;;;-146.82;100.00;71671.09;5034869;28;20130;-79
2023/12/27 04:25:23;;;;;;;3.38;1.23;;;;;;;-146.82;100.00;71671.09;5034701;28;20049;-80
2023/12/27 04:27:49;;;;;;;6.85;1.10;;;;;;;-146.82;100.00;71671.09;5018388;28;20029;-81
2023/12/27 04:30:14;;;;;;;6.03;1.20;;;;;;;-146.82;100.00;71671.09;5036291;28;20028;-79
2023/12/27 04:32:40;;;;;;;2.75;0.90;;;;;;;-146.82;100.00;71671.09;5035097;28;20465;-82
2023/12/27 04:35:06;;;;;;;7.45;1.30;;;;;;;-146.82;100.00;71671.09;5034968;28;20060;-82
2023/12/27 04:37:31;;;;;;;4.00;1.15;;;;;;;-146.82;100.00;71671.09;5034518;28;20029;-80
2023/12/27 04:39:56;;;;;;;6.93;1.50;;;;;;;-146.82;100.00;71671.09;5034709;28;20056;-82
2023/12/27 04:42:22;;;;;;;6.05;1.00;;;;;;;-146.82;100.00;71671.09;5036464;28;20033;-82
2023/12/27 04:44:48;;;;;;;3.72;0.85;;;;;;;-146.82;100.00;71671.09;5038100;28;20455;-81
2023/12/27 04:47:13;;;;;;;4.53;1.27;;;;;;;-146.82;100.00;71671.09;5036669;28;20021;-81
2023/12/27 04:49:39;;;;;;;7.43;1.25;;;;;;;-146.82;100.00;71671.09;5037981;28;20028;-80
2023/12/27 04:52:05;;;;;;;3.15;0.90;;;;;;;-146.82;100.00;71671.09;5037975;28;20021;-80
2023/12/27 04:54:30;;;;;;;5.95;1.52;;;;;;;-146.82;100.00;71671.09;5037251;28;20030;-81
2023/12/27 04:56:55;;;;;;;6.00;1.25;;;;;;;-146.82;100.00;71671.09;5035493;28;20037;-80
2023/12/27 04:59:21;;;;;;;1.85;0.95;;;;;;;-146.82;100.00;71671.09;5034224;28;20049;-82
2023/12/27 05:01:47;;;;;;;4.45;1.00;;;;;;;-146.82;100.00;71671.09;5034438;28;20056;-82
2023/12/27 05:04:12;;;;;;;8.45;1.88;;;;;;;-146.82;100.00;71671.09;5034158;28;20439;-82
2023/12/27 05:06:38;;;;;;;8.52;1.52;;;;;;;-146.82;100.00;71671.09;5035425;28;20025;-82
2023/12/27 05:09:06;;;;;;;2.42;1.15;;;;;;;-146.82;100.00;71671.09;5035250;28;20482;-80
2023/12/27 05:11:32;;;;;;;4.28;1.30;;;;;;;-146.82;100.00;71671.09;5035712;28;20076;-82
2023/12/27 05:13:57;;;;;;;2.67;1.02;;;;;;;-146.82;100.00;71671.09;5035787;28;20474;-79
2023/12/27 05:16:23;;;;;;;7.30;1.10;;;;;;;-146.82;100.00;71671.09;5034397;28;20022;-79
2023/12/27 05:18:48;;;;;;;7.88;1.08;;;;;;;-146.82;100.00;71671.09;5035533;28;20029;-81
2023/12/27 05:21:15;;;;;;;2.78;1.00;;;;;;;-146.82;100.00;71671.09;5036657;28;20032;-80
2023/12/27 05:23:40;;;;;;;6.03;1.13;;;;;;;-146.82;100.00;71671.09;5038569;28;20149;-82
2023/12/27 05:26:06;;;;;;;2.63;1.67;;;;;;;-146.82;100.00;71671.09;5038116;28;20191;-81
2023/12/27 05:28:32;;;;;;;2.28;0.85;;;;;;;-146.82;100.00;71671.09;5021326;28;20022;-81
2023/12/27 05:30:58;;;;;;;4.38;1.20;;;;;;;-146.82;100.00;71671.09;5035654;28;20089;-81
2023/12/27 05:33:24;;;;;;;8.07;2.78;;;;;;;-146.82;100.00;71671.09;5034115;28;20029;-79
2023/12/27 05:35:50;;;;;;;8.43;1.30;;;;;;;-146.82;100.00;71671.09;5033856;28;20028;-80
2023/12/27 05:38:15;;;;;;;7.50;1.45;;;;;;;-146.82;100.00;71671.09;5017206;28;20100;-80
2023/12/27 05:40:41;;;;;;;8.57;1.40;;;;;;;-146.82;100.00;71671.09;5017224;28;20498;-81
2023/12/27 05:43:06;;;;;;;4.63;1.52;;;;;;;-146.82;100.00;71671.09;5017075;28;20026;-81
2023/12/27 05:45:32;;;;;;;4.93;1.33;;;;;;;-146.82;100.00;71671.09;5034553;28;20055;-82
2023/12/27 05:47:57;;;;;;;5.90;1.95;;;;;;;-146.82;100.00;71671.09;5034687;28;20032;-81
2023/12/27 05:50:23;;;;;;;6.03;2.15;;;;;;;-146.82;100.00;71671.09;5034491;28;20383;-81
2023/12/27 05:52:49;;;;;;;8.75;1.52;;;;;;;-146.82;100.00;71671.09;5033666;28;20029;-80
2023/12/27 05:55:15;;;;;;;7.22;1.23;;;;;;;-146.82;100.00;71671.09;5033788;28;20501;-80
2023/12/27 05:57:40;;;;;;;6.88;1.45;;;;;;;-146.82;100.00;71671.09;5033428;28;20025;-81
2023/12/27 06:00:07;;;;;;;6.90;1.70;;;;;;;-146.82;100.00;71671.09;5034518;28;20026;-82
2023/12/27 06:02:32;;;;;;;5.72;1.52;;;;;;;-146.82;100.00;71671.09;5034367;28;20505;-82
2023/12/27 06:04:58;;;;;;;5.63;2.15;;;;;;;-146.82;100.00;71671.09;5033303;28;20060;-81
2023/12/27 06:07:24;;;;;;;4.50;1.20;;;;;;;-146.82;100.00;71671.09;5034659;28;20048;-81
2023/12/27 06:09:49;;;;;;;4.13;1.40;;;;;;;-146.82;100.00;71671.09;5032753;28;20096;-80
2023/12/27 06:12:15;;;;;;;6.15;1.60;;;;;;;-146.82;100.00;71671.09;5033662;28;20030;-81
2023/12/27 06:14:40;;;;;;;9.43;1.60;;;;;;;-146.82;100.00;71671.09;5035125;28;20037;-81
2023/12/27 06:17:06;;;;;;;10.85;1.63;;;;;;;-146.82;100.00;71671.09;5033596;28;20028;-82
2023/12/27 06:19:32;;;;;;;5.65;1.13;;;;;;;-146.82;100.00;71671.09;5035022;28;20060;-81
2023/12/27 06:21:57;;;;;;;9.98;2.22;;;;;;;-146.82;100.00;71671.09;5038507;28;20041;-82
2023/12/27 06:24:23;;;;;;;7.75;2.33;;;;;;;-146.82;100.00;71671.09;5036487;28;20398;-82
2023/12/27 06:26:49;;;;;;;12.45;2.90;;;;;;;-146.82;100.00;71671.09;5035616;28;20043;-80
2023/12/27 06:29:15;;;;;;;6.00;2.05;;;;;;;-146.82;100.00;71671.09;5034396;28;20033;-82
2023/12/27 06:31:40;;;;;;;7.38;2.75;;;;;;;-146.82;100.00;71671.09;5034092;28;20112;-80
2023/12/27 06:34:06;;;;;;;10.75;2.42;;;;;;;-146.82;100.00;71671.09;5032753;28;20029;-82
2023/12/27 06:36:32;;;;;;;8.75;2.30;;;;;;;-146.82;100.00;71671.09;5032831;28;20036;-81
2023/12/27 06:38:57;;;;;;;20.27;2.88;;;;;;;-146.82;100.00;71671.09;5034565;28;20356;-83
2023/12/27 06:41:23;;;;;;;6.25;2.67;;;;;;;-146.82;100.00;71671.09;5032762;28;20107;-81
2023/12/27 06:43:48;;;;;;;10.73;1.70;;;;;;;-146.82;100.00;71671.09;5016457;28;20155;-80
2023/12/27 06:46:14;;;;;;;7.93;1.85;;;;;;;-146.82;100.00;71671.09;5033102;28;20470;-82
2023/12/27 06:48:39;;;;;;;11.73;2.35;;;;;;;-146.82;100.00;71671.09;5035843;28;20053;-81
2023/12/27 06:51:06;;;;;;;12.35;2.67;;;;;;;-146.82;100.00;71671.09;5038814;28;20049;-81
2023/12/27 06:53:35;;;;;;;8.35;1.90;;;;;;;-146.82;100.00;71671.09;5037869;28;20026;-82
2023/12/27 06:56:01;;;;;;;7.57;2.70;;;;;;;-146.82;100.00;71671.09;5033461;28;20116;-82
2023/12/27 06:58:27;;;;;;;10.05;2.33;;;;;;;-146.82;100.00;71671.09;5034133;28;20052;-80
2023/12/27 07:00:52;;;;;;;8.60;1.90;;;;;;;-146.82;100.00;71671.09;5034437;28;20117;-81
2023/12/27 07:03:17;;;;;;;3.67;1.67;;;;;;;-146.82;100.00;71671.09;5033399;28;20116;-80
2023/12/27 07:05:43;;;;;;;5.55;1.73;;;;;;;-146.82;100.00;71671.09;5032608;28;20445;-81
2023/12/27 07:08:08;;;;;;;8.55;1.63;;;;;;;-146.82;100.00;71671.09;5032717;28;20039;-82
2023/12/27 07:10:34;;;;;;;4.53;1.23;;;;;;;-146.82;100.00;71671.09;5034600;28;20029;-81
2023/12/27 07:13:00;;;;;;;11.93;1.60;;;;;;;-146.82;100.00;71671.09;5038129;28;20018;-82
2023/12/27 07:15:25;;;;;;;10.93;2.03;;;;;;;-146.82;100.00;71671.09;5037892;28;20048;-82
2023/12/27 07:17:50;;;;;;;8.07;1.27;;;;;;;-146.82;100.00;71671.09;5037659;28;20056;-81
2023/12/27 07:20:16;;;;;;;4.97;2.25;;;;;;;-146.82;100.00;71671.09;5037195;28;20025;-79
2023/12/27 07:22:41;;;;;;;5.20;1.20;;;;;;;-146.82;100.00;71671.09;5037451;28;20045;-80
2023/12/27 07:25:07;;;;;;;14.55;1.50;;;;;;;-146.82;100.00;71671.09;5037119;28;20041;-82
2023/12/27 07:27:32;;;;;;;5.65;1.95;;;;;;;-146.82;100.00;71671.09;5036231;28;20478;-81
2023/12/27 07:29:58;;;;;;;5.85;1.33;;;;;;;-146.82;100.00;71671.09;5037451;28;20029;-81
2023/12/27 07:32:23;;;;;;;6.38;1.70;;;;;;;-146.82;100.00;71671.09;5037228;28;20018;-80
2023/12/27 07:34:49;;;;;;;10.88;1.70;;;;;;;-146.82;100.00;71671.09;5037393;28;20390;-80
2023/12/27 07:37:14;;;;;;;10.45;1.83;;;;;;;-146.82;100.00;71671.09;5037600;28;20029;-81
2023/12/27 07:39:42;;;;;;;6.47;1.50;;;;;;;-146.82;100.00;71671.09;5037578;28;20022;-80
2023/12/27 07:42:08;;;;;;;9.90;1.65;;;;;;;-146.82;100.00;71671.09;5037170;28;20025;-82
2023/12/27 07:44:33;;;;;;;11.52;3.08;;;;;;;-146.82;100.00;71671.09;5035554;28;20036;-81
2023/12/27 07:46:59;;;;;;;10.15;1.70;;;;;;;-146.82;100.00;71671.09;5036186;28;20125;-80
2023/12/27 07:49:25;;;;;;;15.45;2.53;;;;;;;-146.82;100.00;71671.09;5035304;28;20029;-80
2023/12/27 07:51:50;;;;;;;10.48;2.17;;;;;;;-146.82;100.00;71671.09;5036681;28;20378;-81
2023/12/27 07:54:16;;;;;;;9.05;2.13;;;;;;;-146.82;100.00;71671.09;5036673;28;20489;-81
2023/12/27 07:56:41;;;;;;;12.02;2.45;;;;;;;-146.82;100.00;71671.09;5035397;28;20398;-81
2023/12/27 07:59:07;;;;;;;9.98;2.17;;;;;;;-146.82;100.00;71671.09;5036561;28;20378;-82
2023/12/27 08:01:33;;;;;;;6.15;1.85;;;;;;;-146.82;100.00;71671.09;5037629;28;20068;-81
2023/12/27 08:03:59;;;;;;;10.75;2.78;;;;;;;-146.82;100.00;71671.09;5037370;28;20522;-81
2023/12/27 08:06:26;;;;;;;6.43;1.70;;;;;;;-146.82;100.00;71671.09;5037222;28;20052;-83
2023/12/27 08:08:52;;;;;;;11.10;2.67;;;;;;;-146.82;100.00;71671.09;5037124;28;20033;-82
2023/12/27 08:11:17;;;;;;;5.32;2.08;;;;;;;-146.82;100.00;71671.09;5035961;28;20493;-81
2023/12/27 08:13:42;;;;;;;9.25;2.95;;;;;;;-146.82;100.00;71671.09;5035157;28;20435;-81
2023/12/27 08:16:08;;;;;;;14.32;2.97;;;;;;;-146.82;100.00;71671.09;5034972;28;20035;-81
2023/12/27 08:18:33;;;;;;;8.52;2.22;;;;;;;-146.82;100.00;71671.09;5035050;28;20096;-82
2023/12/27 08:20:59;;;;;;;8.80;3.25;;;;;;;-146.82;100.00;71671.09;5035968;28;20108;-80
2023/12/27 08:23:24;;;;;;;11.77;2.20;;;;;;;-146.82;100.00;71671.09;5034931;28;20021;-82
2023/12/27 08:25:50;;;;;;;5.78;2.15;;;;;;;-146.82;100.00;71671.09;5036568;28;20028;-80
2023/12/27 08:28:16;;;;;;;14.75;3.05;;;;;;;-146.82;100.00;71671.09;5034750;28;20059;-83
2023/12/27 08:30:41;;;;;;;17.25;2.63;;;;;;;-146.82;100.00;71671.09;5034809;28;20029;-81
2023/12/27 08:33:07;;;;;;;13.93;2.85;;;;;;;-146.82;100.00;71671.09;5035877;28;20386;-81
2023/12/27 08:35:36;;;;;;;11.65;3.13;;;;;;;-146.82;100.00;71671.09;5034612;28;20056;-81
2023/12/27 08:38:02;;;;;;;14.23;2.80;;;;;;;-146.82;100.00;71671.09;5018008;28;20378;-81
2023/12/27 08:40:28;;;;;;;13.30;3.30;;;;;;;-146.82;100.00;71671.09;5035849;28;20082;-80
2023/12/27 08:42:54;;;;;;;15.20;2.20;;;;;;;-146.82;100.00;71671.09;5018030;28;20120;-82
2023/12/27 08:45:19;;;;;;;7.85;2.25;;;;;;;-146.82;100.00;71671.09;5035685;28;20043;-81
2023/12/27 08:47:45;;;;;;;8.70;2.00;;;;;;;-146.82;100.00;71671.09;5035741;28;20025;-82
2023/12/27 08:50:11;;;;;;;7.93;2.20;;;;;;;-146.82;100.00;71671.09;5035812;28;20128;-79
2023/12/27 08:52:38;;;;;;;6.85;1.73;;;;;;;-146.82;100.00;71671.09;5035804;28;20065;-80
2023/12/27 08:55:05;;;;;;;8.73;2.25;;;;;;;-146.82;100.00;71671.09;5035815;28;20032;-80
2023/12/27 08:57:31;;;;;;;11.13;1.88;;;;;;;-146.82;100.00;71671.09;5039688;28;20029;-81
2023/12/27 08:59:56;;;;;;;11.63;1.92;;;;;;;-146.82;100.00;71671.09;5042022;28;20135;-82
2023/12/27 09:02:23;;;;;;;8.73;2.38;;;;;;;-146.82;100.00;71671.09;5042357;28;20119;-80
2023/12/27 09:04:49;;;;;;;13.43;1.77;;;;;;;-146.82;100.00;71671.09;5042120;28;20036;-81
2023/12/27 09:07:14;;;;;;;7.93;2.38;;;;;;;-146.82;100.00;71671.09;5045898;28;20026;-82
2023/12/27 09:09:39;;;;;;;6.40;2.40;;;;;;;-146.82;100.00;71671.09;5042327;28;20033;-83
2023/12/27 09:12:05;;;;;;;10.27;2.10;;;;;;;-146.82;100.00;71671.09;5035045;28;20112;-82
2023/12/27 09:14:31;;;;;;;7.78;2.13;;;;;;;-146.82;100.00;71671.09;5035621;28;20030;-82
2023/12/27 09:16:56;;;;;;;11.35;1.90;;;;;;;-146.82;100.00;71671.09;5035517;28;20375;-82
2023/12/27 09:19:21;;;;;;;12.50;2.10;;;;;;;-146.82;100.00;71671.09;5035605;28;20030;-82
2023/12/27 09:21:47;;;;;;;9.18;2.03;;;;;;;-146.82;100.00;71671.09;5035613;28;20025;-82
2023/12/27 09:24:13;;;;;;;8.43;2.65;;;;;;;-146.82;100.00;71671.09;5034099;28;20045;-83
2023/12/27 09:26:39;;;;;;;8.18;2.10;;;;;;;-146.82;100.00;71671.09;5035371;28;20414;-81
2023/12/27 09:29:05;;;;;;;9.73;1.88;;;;;;;-146.82;100.00;71671.09;5035241;28;20463;-80
2023/12/27 09:31:31;;;;;;;10.43;2.65;;;;;;;-146.82;100.00;71671.09;5033971;28;20493;-81
2023/12/27 09:33:59;;;;;;;7.68;2.22;;;;;;;-146.82;100.00;71671.09;5033746;28;20029;-82
2023/12/27 09:36:25;;;;;;;7.70;2.15;;;;;;;-146.82;100.00;71671.09;5036444;28;20055;-80
2023/12/27 09:38:50;;;;;;;6.90;1.73;;;;;;;-146.82;100.00;71671.09;5036537;28;20021;-82
2023/12/27 09:41:16;;;;;;;12.82;2.22;;;;;;;-146.82;100.00;71671.09;5035217;28;20029;-81
2023/12/27 09:43:42;;;;;;;6.35;1.70;;;;;;;-146.82;100.00;71671.09;5034662;28;20022;-82
2023/12/27 09:46:10;;;;;;;10.73;2.08;;;;;;;-146.82;100.00;71671.09;5035521;28;20374;-81
2023/12/27 09:48:36;;;;;;;5.78;1.73;;;;;;;-146.82;100.00;71671.09;5034666;28;20476;-81
2023/12/27 09:51:02;;;;;;;16.15;2.97;;;;;;;-146.82;100.00;71671.09;5034464;28;20027;-81
2023/12/27 09:53:27;;;;;;;9.68;1.90;;;;;;;-146.82;100.00;71671.09;5033324;28;20021;-82
2023/12/27 09:55:54;;;;;;;8.60;1.67;;;;;;;-146.82;100.00;71671.09;5034416;28;20026;-81
2023/12/27 09:58:20;;;;;;;11.80;2.10;;;;;;;-146.82;100.00;71671.09;5032991;28;20025;-80
2023/12/27 10:00:46;;;;;;;10.50;2.17;;;;;;;-146.82;100.00;71671.09;5032964;28;20125;-80
2023/12/27 10:03:13;;;;;;;9.60;2.50;;;;;;;-146.82;100.00;71671.09;5016531;28;20014;-82
2023/12/27 10:06:00;;;;;;;8.50;2.22;;;;;;;-146.82;100.00;71671.09;5033090;28;20017;-81
2023/12/27 10:08:26;;;;;;;12.18;2.42;;;;;;;-146.82;100.00;71671.09;5034112;28;20041;-81
2023/12/27 10:10:52;;;;;;;4.78;1.67;;;;;;;-146.82;100.00;71671.09;5033902;28;20029;-81
2023/12/27 10:13:19;;;;;;;7.22;2.20;;;;;;;-146.82;100.00;71671.09;5034581;28;20048;-82
2023/12/27 10:15:44;;;;;;;11.65;3.03;;;;;;;-146.82;100.00;71671.09;5016241;28;20025;-81
2023/12/27 10:18:10;;;;;;;10.80;1.90;;;;;;;-146.82;100.00;71671.09;5032897;28;20076;-81
2023/12/27 10:20:38;;;;;;;8.35;2.92;;;;;;;-146.82;100.00;71671.09;5032635;28;20021;-80
2023/12/27 10:23:06;;;;;;;7.38;2.00;;;;;;;-146.82;100.00;71671.09;5032748;28;20040;-82
2023/12/27 10:25:32;;;;;;;6.78;1.73;;;;;;;-146.82;100.00;71671.09;5032221;28;20045;-81
2023/12/27 10:27:58;;;;;;;10.90;2.53;;;;;;;-146.82;100.00;71671.09;5033907;28;20037;-81
2023/12/27 10:30:24;;;;;;;8.13;2.15;;;;;;;-146.82;100.00;71671.09;5033885;28;20478;-81
2023/12/27 10:32:59;;;;;;;7.68;1.83;;;;;;;-146.82;100.00;71671.09;5033805;28;20151;-79
2023/12/27 10:35:26;;;;;;;8.27;1.92;;;;;;;-146.82;100.00;71671.09;5033574;28;20098;-81
2023/12/27 10:38:03;;;;;;;10.73;3.00;;;;;;;-146.82;100.00;71671.09;5033506;28;20116;-83
2023/12/27 10:40:29;;;;;;;9.38;2.15;;;;;;;-146.82;100.00;71671.09;5033608;28;20017;-82
2023/12/27 10:42:54;;;;;;;8.40;2.35;;;;;;;-146.82;100.00;71671.09;5032487;28;20034;-82
2023/12/27 10:45:21;;;;;;;10.60;2.42;;;;;;;-146.82;100.00;71671.09;5033621;28;20029;-81
2023/12/27 10:47:47;;;;;;;8.23;2.30;;;;;;;-146.82;100.00;71671.09;5033642;28;20029;-81
2023/12/27 10:50:15;;;;;;;8.27;2.20;;;;;;;-146.82;100.00;71671.09;5031965;28;20032;-83
2023/12/27 10:52:41;;;;;;;7.18;1.95;;;;;;;-146.82;100.00;71671.09;5015685;28;20061;-81
2023/12/27 10:55:08;;;;;;;13.50;2.40;;;;;;;-146.82;100.00;71671.09;5032412;28;20095;-81
2023/12/27 10:57:35;;;;;;;6.03;1.70;;;;;;;-146.82;100.00;71671.09;5032293;28;20049;-81
2023/12/27 11:00:03;;;;;;;10.68;1.75;;;;;;;-146.82;100.00;71671.09;5033532;28;20049;-80